Time;durP1;ratioP1;P1;durP2;ratioP2;P2;SDS_P1;SDS_P2;PMS_P1;PMS_P2;Temp;Humidity;BMP_temperature;BMP_pressure;BME280_temperature;BME280_humidity;BME280_pressure;Samples;Min_cycle;Max_cycle;Signal;HPM_P1;HPM_P2
2022/11/07 00:02:14;;;;;;;1.20;1.00;;;11.30;88.40;;;;;;5154527;27;20045;-75
2022/11/07 00:04:40;;;;;;;2.75;1.10;;;11.30;88.40;;;;;;5155198;27;20042;-75
2022/11/07 00:07:07;;;;;;;1.40;1.00;;;11.30;88.30;;;;;;5154641;27;20087;-75
2022/11/07 00:09:32;;;;;;;1.35;0.90;;;11.30;88.40;;;;;;5154654;27;20058;-73
2022/11/07 00:11:58;;;;;;;1.23;0.80;;;11.30;88.40;;;;;;5154392;27;20050;-74
2022/11/07 00:14:24;;;;;;;1.58;0.90;;;11.30;88.40;;;;;;5136473;27;20042;-74
2022/11/07 00:16:50;;;;;;;2.70;1.17;;;11.30;88.50;;;;;;5154425;27;20493;-74
2022/11/07 00:19:18;;;;;;;0.80;0.80;;;11.20;88.50;;;;;;5154624;27;20038;-75
2022/11/07 00:21:44;;;;;;;1.17;0.80;;;11.20;88.60;;;;;;5135708;27;20042;-75
2022/11/07 00:24:10;;;;;;;2.40;1.10;;;11.20;88.70;;;;;;5154827;27;20095;-75
2022/11/07 00:26:36;;;;;;;1.52;0.82;;;11.10;88.70;;;;;;5154368;27;20474;-75
2022/11/07 00:29:03;;;;;;;1.95;0.80;;;11.20;88.80;;;;;;5154240;27;20035;-75
2022/11/07 00:31:29;;;;;;;2.22;1.00;;;11.20;88.80;;;;;;5135178;27;20031;-75
2022/11/07 00:33:56;;;;;;;1.83;0.88;;;11.20;88.90;;;;;;5154271;27;20093;-75
2022/11/07 00:36:24;;;;;;;1.73;0.98;;;11.20;88.90;;;;;;5154614;27;20155;-75
2022/11/07 00:38:50;;;;;;;1.17;1.02;;;11.20;88.90;;;;;;5150702;27;20130;-74
2022/11/07 00:41:16;;;;;;;3.13;0.95;;;11.20;88.80;;;;;;5154732;27;20026;-75
2022/11/07 00:43:43;;;;;;;2.63;1.05;;;11.20;88.70;;;;;;5117394;27;20047;-75
2022/11/07 00:46:10;;;;;;;1.13;0.73;;;11.20;88.70;;;;;;5135429;27;20145;-75
2022/11/07 00:48:36;;;;;;;1.27;1.00;;;11.30;88.70;;;;;;5118513;27;20043;-75
2022/11/07 00:51:12;;;;;;;1.48;0.80;;;11.40;88.70;;;;;;5153936;27;20038;-75
2022/11/07 00:53:39;;;;;;;1.25;0.80;;;11.30;88.70;;;;;;5153867;27;20083;-74
2022/11/07 00:56:07;;;;;;;0.90;0.85;;;11.30;88.80;;;;;;5153760;27;20062;-75
2022/11/07 00:58:34;;;;;;;1.60;1.08;;;11.30;88.70;;;;;;5135197;27;20050;-75
2022/11/07 01:01:08;;;;;;;2.00;0.90;;;11.30;88.70;;;;;;5135617;27;20035;-75
2022/11/07 01:06:18;;;;;;;1.48;0.90;;;11.40;88.80;;;;;;5153681;27;20139;-74
2022/11/07 01:08:44;;;;;;;1.27;0.88;;;11.30;88.80;;;;;;5135650;27;20142;-75
2022/11/07 01:11:10;;;;;;;2.60;0.82;;;11.40;88.80;;;;;;5135209;27;20088;-74
2022/11/07 01:13:36;;;;;;;1.80;0.90;;;11.30;88.70;;;;;;5135543;27;20065;-75
2022/11/07 01:16:02;;;;;;;1.15;0.70;;;11.30;88.70;;;;;;5153572;27;20394;-75
2022/11/07 01:18:27;;;;;;;0.50;0.50;;;11.40;88.80;;;;;;5133766;27;20070;-75
2022/11/07 01:20:53;;;;;;;3.22;0.85;;;11.30;88.80;;;;;;5153601;27;20046;-75
2022/11/07 01:23:21;;;;;;;1.38;0.70;;;11.30;88.80;;;;;;5153402;27;20039;-74
2022/11/07 01:25:48;;;;;;;1.23;0.70;;;11.30;88.90;;;;;;5153929;27;20043;-74
2022/11/07 01:28:14;;;;;;;0.82;0.75;;;11.30;89.00;;;;;;5153513;27;20514;-75
2022/11/07 01:30:42;;;;;;;1.55;0.60;;;11.30;89.00;;;;;;5153382;27;20405;-75
2022/11/07 01:33:09;;;;;;;1.30;0.77;;;11.30;88.90;;;;;;5153927;27;20117;-75
2022/11/07 01:35:35;;;;;;;1.92;0.90;;;11.30;88.90;;;;;;5153701;27;20414;-74
2022/11/07 01:38:02;;;;;;;0.98;0.80;;;11.30;88.90;;;;;;5153389;27;20133;-75
2022/11/07 01:40:28;;;;;;;1.42;1.13;;;11.40;89.00;;;;;;5153624;27;20081;-74
2022/11/07 01:42:54;;;;;;;1.50;0.75;;;11.50;89.60;;;;;;5135006;27;20474;-75
2022/11/07 01:45:24;;;;;;;1.20;0.90;;;11.40;88.90;;;;;;5153117;27;20046;-74
2022/11/07 01:47:52;;;;;;;0.90;0.60;;;11.40;88.80;;;;;;5153116;27;20051;-75
2022/11/07 01:50:18;;;;;;;2.55;0.70;;;11.40;88.80;;;;;;5133332;27;20352;-74
2022/11/07 01:52:46;;;;;;;0.90;0.80;;;11.40;88.80;;;;;;5153565;27;20458;-75
2022/11/07 01:55:16;;;;;;;1.38;0.90;;;11.40;88.90;;;;;;5132757;27;20044;-75
2022/11/07 01:57:48;;;;;;;2.97;0.98;;;11.40;88.90;;;;;;5155748;27;20046;-75
2022/11/07 02:00:18;;;;;;;1.10;0.70;;;11.30;88.90;;;;;;5153195;27;20397;-74
2022/11/07 02:02:45;;;;;;;1.33;0.77;;;11.30;89.00;;;;;;5136296;27;20043;-75
2022/11/07 02:05:19;;;;;;;2.13;0.70;;;11.30;89.10;;;;;;5138497;27;20050;-75
2022/11/07 02:07:45;;;;;;;1.42;0.98;;;11.30;89.20;;;;;;5139171;27;20050;-74
2022/11/07 02:10:13;;;;;;;1.45;0.80;;;11.30;89.20;;;;;;5156461;27;20042;-75
2022/11/07 02:12:39;;;;;;;2.15;1.00;;;11.20;89.20;;;;;;5137252;27;20050;-75
2022/11/07 02:15:08;;;;;;;1.45;0.80;;;11.30;89.20;;;;;;5137823;27;20095;-75
2022/11/07 02:17:34;;;;;;;1.27;0.90;;;11.30;89.30;;;;;;5156616;27;20091;-75
2022/11/07 02:20:00;;;;;;;1.30;0.90;;;11.30;89.30;;;;;;5137830;27;20053;-75
2022/11/07 02:22:50;;;;;;;1.45;0.80;;;11.20;89.20;;;;;;5137970;27;20042;-75
2022/11/07 02:25:18;;;;;;;1.90;1.00;;;11.20;89.30;;;;;;5134028;27;20088;-74
2022/11/07 02:27:48;;;;;;;2.83;1.00;;;11.20;89.30;;;;;;5156317;27;20394;-75
2022/11/07 02:30:17;;;;;;;1.15;0.95;;;11.20;89.30;;;;;;5137746;27;20038;-74
2022/11/07 02:32:43;;;;;;;1.45;0.93;;;11.30;89.30;;;;;;5137472;27;20039;-74
2022/11/07 02:35:41;;;;;;;1.77;1.13;;;11.30;89.40;;;;;;5155835;27;20045;-75
2022/11/07 02:38:17;;;;;;;1.88;0.80;;;11.20;89.40;;;;;;5136308;27;20046;-74
2022/11/07 02:40:46;;;;;;;2.55;1.00;;;11.20;89.40;;;;;;5156046;27;20031;-75
2022/11/07 02:43:15;;;;;;;1.25;0.80;;;11.20;89.40;;;;;;5156389;27;20497;-75
2022/11/07 02:45:44;;;;;;;2.75;0.90;;;11.20;89.40;;;;;;5155999;27;20497;-74
2022/11/07 02:48:09;;;;;;;0.70;0.60;;;11.20;89.40;;;;;;5156179;27;20045;-75
2022/11/07 02:50:36;;;;;;;2.10;0.80;;;11.20;89.50;;;;;;5137386;27;20035;-74
2022/11/07 02:53:01;;;;;;;0.60;0.60;;;11.10;89.50;;;;;;5155747;27;20066;-75
2022/11/07 02:55:27;;;;;;;0.80;0.70;;;11.10;89.50;;;;;;5155756;27;20629;-75
2022/11/07 02:57:53;;;;;;;0.95;0.80;;;11.10;89.60;;;;;;5137156;27;20072;-75
2022/11/07 03:00:19;;;;;;;2.78;1.33;;;11.20;89.70;;;;;;5137421;27;20051;-75
2022/11/07 03:02:45;;;;;;;1.00;0.90;;;11.10;89.60;;;;;;5137131;27;20031;-75
2022/11/07 03:05:14;;;;;;;0.75;0.70;;;11.20;89.60;;;;;;5155584;27;20038;-75
2022/11/07 03:07:41;;;;;;;2.58;0.85;;;11.20;89.60;;;;;;5154873;27;20046;-75
2022/11/07 03:10:09;;;;;;;1.20;0.70;;;11.10;89.60;;;;;;5136843;27;20039;-75
2022/11/07 03:12:35;;;;;;;2.13;0.90;;;11.10;89.70;;;;;;5155078;27;20045;-75
2022/11/07 03:15:00;;;;;;;1.40;1.00;;;11.20;89.80;;;;;;5137047;27;20466;-75
2022/11/07 03:17:26;;;;;;;0.88;0.60;;;11.10;89.70;;;;;;5137061;27;20043;-75
2022/11/07 03:19:52;;;;;;;0.98;0.63;;;11.10;89.70;;;;;;5136790;27;20062;-75
2022/11/07 03:22:18;;;;;;;1.40;0.57;;;11.10;89.70;;;;;;5155648;27;20462;-76
2022/11/07 03:24:43;;;;;;;0.60;0.60;;;11.10;89.80;;;;;;5155043;27;20046;-75
2022/11/07 03:27:09;;;;;;;0.93;0.60;;;11.10;89.80;;;;;;5155477;27;20042;-75
2022/11/07 03:29:35;;;;;;;1.17;0.60;;;11.10;89.70;;;;;;5154980;27;20038;-74
2022/11/07 03:32:01;;;;;;;0.95;0.80;;;11.20;89.80;;;;;;5136338;27;20047;-74
2022/11/07 03:34:27;;;;;;;1.45;0.70;;;11.20;89.80;;;;;;5155211;27;20143;-75
2022/11/07 03:36:52;;;;;;;1.13;0.60;;;11.20;89.80;;;;;;5155259;27;20149;-75
2022/11/07 03:39:18;;;;;;;1.50;0.68;;;11.30;89.70;;;;;;5136491;27;20397;-75
2022/11/07 03:41:44;;;;;;;0.50;0.50;;;11.20;89.70;;;;;;5155484;27;20039;-75
2022/11/07 03:44:09;;;;;;;0.85;0.55;;;11.20;89.70;;;;;;5136617;27;20092;-75
2022/11/07 03:46:35;;;;;;;1.55;0.57;;;11.30;89.70;;;;;;5137101;27;20122;-75
2022/11/07 03:49:01;;;;;;;2.05;0.70;;;11.30;89.70;;;;;;5155404;27;20041;-75
2022/11/07 03:51:26;;;;;;;3.03;0.90;;;11.30;89.70;;;;;;5155336;27;20118;-75
2022/11/07 03:53:53;;;;;;;1.48;0.70;;;11.30;90.10;;;;;;5155026;27;20083;-75
2022/11/07 03:56:19;;;;;;;1.48;0.75;;;11.30;89.60;;;;;;5135755;27;20042;-75
2022/11/07 03:58:45;;;;;;;0.63;0.52;;;11.30;89.50;;;;;;5154672;27;20490;-74
2022/11/07 04:01:12;;;;;;;1.27;0.50;;;11.40;89.60;;;;;;5155290;27;20031;-75
2022/11/07 04:03:37;;;;;;;1.38;0.70;;;11.30;89.60;;;;;;5154859;27;20038;-75
2022/11/07 04:06:03;;;;;;;2.17;0.80;;;11.40;89.60;;;;;;5154870;27;20042;-75
2022/11/07 04:08:29;;;;;;;1.63;0.73;;;11.40;89.60;;;;;;5119320;27;20061;-76
2022/11/07 04:10:55;;;;;;;2.28;0.73;;;11.30;89.50;;;;;;5154731;27;20122;-75
2022/11/07 04:17:17;;;;;;;1.02;0.60;;;11.40;89.60;;;;;;5154242;27;20145;-75
2022/11/07 04:18:52;;;;;;;1.60;0.70;;;11.40;89.60;;;;;;5153216;27;20508;-75
2022/11/07 04:21:18;;;;;;;2.30;0.70;;;11.40;89.60;;;;;;5154490;27;20062;-75
2022/11/07 04:23:44;;;;;;;1.42;0.73;;;11.40;89.60;;;;;;5154506;27;20073;-75
2022/11/07 04:28:45;;;;;;;1.20;0.70;;;11.40;89.60;;;;;;5154411;27;20121;-75
2022/11/07 04:31:11;;;;;;;1.83;0.80;;;11.40;89.60;;;;;;5135889;27;20486;-75
2022/11/07 04:33:37;;;;;;;1.77;0.70;;;11.40;89.60;;;;;;5135550;27;20466;-75
2022/11/07 04:36:03;;;;;;;2.00;0.75;;;11.40;89.60;;;;;;5135504;27;20067;-75
2022/11/07 04:38:28;;;;;;;2.30;0.82;;;11.40;89.60;;;;;;5154302;27;20402;-75
2022/11/07 04:40:56;;;;;;;1.05;0.70;;;11.40;89.60;;;;;;5154195;27;20045;-75
2022/11/07 04:43:24;;;;;;;1.80;0.70;;;11.50;89.70;;;;;;5154100;27;20031;-75
2022/11/07 04:45:50;;;;;;;1.23;0.68;;;11.60;89.70;;;;;;5153919;27;20111;-75
2022/11/07 04:48:16;;;;;;;1.55;0.63;;;11.50;89.70;;;;;;5154026;27;20035;-75
2022/11/07 04:50:43;;;;;;;1.30;0.70;;;11.50;89.70;;;;;;5153889;27;20044;-75
2022/11/07 04:53:12;;;;;;;1.80;0.73;;;11.50;89.70;;;;;;5154590;27;20042;-75
2022/11/07 04:55:37;;;;;;;2.65;0.98;;;11.60;89.80;;;;;;5153986;27;20042;-75
2022/11/07 04:58:03;;;;;;;1.83;0.60;;;11.50;89.60;;;;;;5153912;27;20506;-75
2022/11/07 05:00:29;;;;;;;1.80;0.80;;;11.60;89.60;;;;;;5135011;27;20043;-74
2022/11/07 05:02:55;;;;;;;1.60;0.93;;;11.50;89.50;;;;;;5118848;27;20478;-75
2022/11/07 05:05:21;;;;;;;1.83;0.70;;;11.70;89.50;;;;;;5154116;27;20494;-75
2022/11/07 05:07:47;;;;;;;0.90;0.77;;;11.60;89.50;;;;;;5135449;27;20042;-75
2022/11/07 05:10:18;;;;;;;1.58;0.85;;;11.60;89.50;;;;;;5135499;27;20480;-75
2022/11/07 05:12:44;;;;;;;1.27;0.43;;;11.70;90.00;;;;;;5154018;27;20046;-75
2022/11/07 05:15:10;;;;;;;1.83;0.70;;;11.70;89.60;;;;;;5135428;27;20046;-76
2022/11/07 05:17:36;;;;;;;1.35;0.70;;;11.70;89.60;;;;;;5134085;27;20030;-75
2022/11/07 05:20:02;;;;;;;1.17;0.60;;;11.70;89.60;;;;;;5118022;27;20041;-75
2022/11/07 05:25:09;;;;;;;;;;;11.80;89.70;;;;;;5154101;27;20130;-76
2022/11/07 05:27:34;;;;;;;0.88;0.70;;;11.70;89.60;;;;;;5154136;27;20386;-75
2022/11/07 05:30:00;;;;;;;1.58;0.70;;;11.70;89.60;;;;;;5153777;27;20435;-75
2022/11/07 05:32:26;;;;;;;1.80;0.70;;;11.70;89.60;;;;;;5135266;27;20129;-76
2022/11/07 05:34:52;;;;;;;2.38;0.73;;;11.70;89.60;;;;;;5135698;27;20045;-76
2022/11/07 05:37:18;;;;;;;1.55;0.85;;;11.70;89.60;;;;;;5154218;27;20039;-75
2022/11/07 05:39:44;;;;;;;0.90;0.80;;;11.70;89.60;;;;;;5135271;27;20129;-75
2022/11/07 05:42:09;;;;;;;1.33;0.80;;;11.70;89.60;;;;;;5153757;27;20042;-75
2022/11/07 05:44:35;;;;;;;2.20;0.65;;;11.70;89.60;;;;;;5153485;27;20413;-75
2022/11/07 05:47:01;;;;;;;1.35;0.70;;;11.70;89.60;;;;;;5153503;27;20065;-75
2022/11/07 05:49:27;;;;;;;0.90;0.57;;;11.70;89.60;;;;;;5153627;27;20513;-75
2022/11/07 05:51:52;;;;;;;4.85;0.98;;;11.60;89.60;;;;;;5153368;27;20037;-75
2022/11/07 05:54:18;;;;;;;1.17;0.70;;;11.70;89.80;;;;;;5153931;27;20031;-74
2022/11/07 05:56:44;;;;;;;1.65;0.93;;;11.70;89.70;;;;;;5153095;27;20193;-75
2022/11/07 05:59:11;;;;;;;2.58;1.08;;;11.70;89.70;;;;;;5153481;27;20035;-74
2022/11/07 06:01:37;;;;;;;2.17;0.95;;;11.70;89.70;;;;;;5130921;27;20453;-75
2022/11/07 06:04:04;;;;;;;3.05;0.90;;;11.70;89.70;;;;;;5153304;27;20062;-74
2022/11/07 06:06:30;;;;;;;4.13;1.10;;;11.70;89.70;;;;;;5134590;27;20053;-74
2022/11/07 06:08:57;;;;;;;2.58;0.90;;;11.70;89.80;;;;;;5135247;27;20051;-74
2022/11/07 06:11:22;;;;;;;5.25;1.13;;;11.70;89.70;;;;;;5149493;27;20046;-74
2022/11/07 06:13:50;;;;;;;3.05;0.80;;;11.70;89.70;;;;;;5152974;27;20497;-75
2022/11/07 06:16:16;;;;;;;3.47;1.02;;;11.70;89.60;;;;;;5134949;27;20039;-75
2022/11/07 06:18:41;;;;;;;2.97;1.25;;;11.80;89.70;;;;;;5117534;27;20091;-75
2022/11/07 06:21:07;;;;;;;1.50;0.88;;;11.70;89.60;;;;;;5153505;27;20114;-74
2022/11/07 06:23:33;;;;;;;3.72;1.10;;;11.70;89.60;;;;;;5153344;27;20390;-76
2022/11/07 06:25:59;;;;;;;1.92;0.82;;;11.80;89.60;;;;;;5134480;27;20042;-76
2022/11/07 06:28:24;;;;;;;2.88;1.00;;;11.90;89.60;;;;;;5153158;27;20053;-76
2022/11/07 06:30:50;;;;;;;2.33;0.90;;;11.80;89.60;;;;;;5117226;27;20118;-76
2022/11/07 06:33:17;;;;;;;1.80;0.80;;;11.80;89.60;;;;;;5153102;27;20068;-76
2022/11/07 06:35:44;;;;;;;2.78;0.90;;;11.80;89.80;;;;;;5153023;27;20038;-76
2022/11/07 06:38:12;;;;;;;3.03;0.85;;;11.80;89.50;;;;;;5152911;27;20045;-76
2022/11/07 06:40:39;;;;;;;1.65;0.70;;;11.80;89.50;;;;;;5153131;27;20035;-75
2022/11/07 06:43:09;;;;;;;3.45;0.85;;;11.80;89.60;;;;;;5136645;27;20038;-76
2022/11/07 06:45:35;;;;;;;1.48;0.80;;;11.80;89.70;;;;;;5137108;27;20503;-77
2022/11/07 06:48:01;;;;;;;4.40;1.00;;;11.80;89.60;;;;;;5138093;27;20130;-76
2022/11/07 06:50:27;;;;;;;3.63;1.02;;;11.90;89.70;;;;;;5136070;27;20073;-75
2022/11/07 06:52:52;;;;;;;1.90;0.80;;;11.90;89.70;;;;;;5136601;27;20092;-76
2022/11/07 06:55:20;;;;;;;3.20;1.00;;;11.90;89.70;;;;;;5137734;27;20049;-76
2022/11/07 06:57:47;;;;;;;2.55;0.93;;;11.90;89.80;;;;;;5137602;27;20039;-76
2022/11/07 07:00:14;;;;;;;1.25;0.70;;;11.90;89.70;;;;;;5137382;27;20043;-76
2022/11/07 07:02:40;;;;;;;1.73;0.98;;;11.90;89.70;;;;;;5156080;27;20042;-77
2022/11/07 07:05:06;;;;;;;2.38;0.75;;;11.90;89.60;;;;;;5156097;27;20057;-76
2022/11/07 07:07:32;;;;;;;1.42;0.68;;;11.90;89.60;;;;;;5135475;27;20121;-76
2022/11/07 07:09:57;;;;;;;1.38;0.70;;;11.90;89.60;;;;;;5137367;27;20058;-76
2022/11/07 07:12:25;;;;;;;1.45;0.85;;;11.90;89.60;;;;;;5155696;27;20375;-74
2022/11/07 07:14:50;;;;;;;2.42;0.90;;;11.90;89.60;;;;;;5156333;27;20070;-76
2022/11/07 07:17:16;;;;;;;1.60;0.70;;;11.90;89.50;;;;;;5120044;27;20066;-75
2022/11/07 07:19:42;;;;;;;3.50;0.90;;;12.00;89.60;;;;;;5120312;27;20039;-76
2022/11/07 07:22:12;;;;;;;3.88;1.08;;;12.00;89.50;;;;;;5155504;27;20504;-75
2022/11/07 07:24:38;;;;;;;2.17;0.82;;;12.00;89.40;;;;;;5155699;27;20163;-76
2022/11/07 07:27:04;;;;;;;1.88;0.50;;;12.00;89.40;;;;;;5137655;27;20062;-76
2022/11/07 07:29:30;;;;;;;2.28;0.57;;;12.00;89.40;;;;;;5156069;27;20414;-76
2022/11/07 07:31:55;;;;;;;1.23;0.70;;;12.00;89.30;;;;;;5155342;27;20035;-76
2022/11/07 07:34:21;;;;;;;1.67;0.82;;;12.10;89.40;;;;;;5118257;27;20073;-76
2022/11/07 07:36:47;;;;;;;2.55;0.90;;;12.10;89.30;;;;;;5136874;27;20039;-76
2022/11/07 07:39:15;;;;;;;2.13;0.75;;;12.10;89.30;;;;;;5136581;27;20077;-75
2022/11/07 07:41:43;;;;;;;2.38;1.10;;;12.10;89.20;;;;;;5136871;27;20474;-74
2022/11/07 07:44:08;;;;;;;3.00;1.10;;;12.10;89.20;;;;;;5111651;28;20074;-73
2022/11/07 07:46:34;;;;;;;1.60;0.98;;;12.20;89.20;;;;;;5112136;28;20093;-76
2022/11/07 07:49:00;;;;;;;2.13;0.80;;;12.20;89.20;;;;;;5111731;28;20089;-77
2022/11/07 08:12:37;;;;;;;3.35;0.80;;;12.40;88.80;;;;;;5020034;28;20158;-75
2022/11/07 08:15:26;;;;;;;3.33;1.17;;;12.50;88.80;;;;;;5024772;28;20048;-76
2022/11/07 08:50:38;;;;;;;1.85;0.88;;;12.80;88.30;;;;;;4730009;30;20048;-77
2022/11/07 08:53:38;;;;;;;2.00;0.68;;;12.80;88.30;;;;;;4728785;30;20094;-76
2022/11/07 08:56:29;;;;;;;2.70;0.85;;;12.90;88.30;;;;;;4760837;30;20063;-77
2022/11/07 08:58:55;;;;;;;3.15;0.70;;;12.90;88.20;;;;;;4811424;29;20054;-74
2022/11/07 09:15:28;;;;;;;1.23;0.55;;;13.00;87.90;;;;;;4840240;29;20207;-77
2022/11/07 09:17:55;;;;;;;0.65;0.40;;;13.20;88.00;;;;;;4787385;29;20783;-76
2022/11/07 09:20:21;;;;;;;2.75;0.75;;;13.20;88.00;;;;;;4766151;30;20080;-76
2022/11/07 09:22:47;;;;;;;1.48;0.60;;;13.20;88.00;;;;;;4776180;29;20171;-75
2022/11/07 09:25:13;;;;;;;1.48;0.60;;;13.30;88.10;;;;;;4841934;29;20049;-77
2022/11/07 09:27:41;;;;;;;1.65;0.60;;;13.20;88.00;;;;;;4894614;29;20048;-78
2022/11/07 09:35:00;;;;;;;2.35;0.80;;;13.30;87.90;;;;;;4875326;29;20471;-75
2022/11/07 09:38:04;;;;;;;1.98;0.55;;;13.40;87.90;;;;;;4818515;29;20058;-74
2022/11/07 09:48:46;;;;;;;1.35;0.60;;;13.70;87.70;;;;;;4819413;29;20081;-75
2022/11/07 09:54:46;;;;;;;1.85;0.70;;;13.70;87.70;;;;;;4875948;29;20051;-77
2022/11/07 09:57:17;;;;;;;1.35;0.77;;;13.70;87.60;;;;;;4894932;29;20103;-74
2022/11/07 09:59:57;;;;;;;1.75;0.70;;;13.70;87.50;;;;;;4876839;29;20094;-75
2022/11/07 10:02:50;;;;;;;3.58;0.73;;;13.70;87.40;;;;;;4904766;29;20067;-76
2022/11/07 10:13:13;;;;;;;2.10;0.57;;;13.80;87.40;;;;;;4902220;29;20048;-76
2022/11/07 10:19:40;;;;;;;2.75;0.93;;;13.80;87.50;;;;;;4868286;29;20052;-75
2022/11/07 10:22:40;;;;;;;1.83;0.77;;;13.90;87.50;;;;;;4890796;29;20059;-75
2022/11/07 10:25:34;;;;;;;1.70;1.00;;;13.80;87.50;;;;;;4882846;29;20049;-75
2022/11/07 10:28:37;;;;;;;2.08;0.85;;;13.80;87.50;;;;;;4871244;29;20091;-76
2022/11/07 10:32:10;;;;;;;2.45;1.00;;;13.70;87.70;;;;;;4897480;29;20131;-75
2022/11/07 10:35:34;;;;;;;1.33;0.70;;;13.80;87.80;;;;;;4885171;29;20052;-77
2022/11/07 10:41:37;;;;;;;1.60;0.80;;;13.90;87.60;;;;;;4852633;29;20125;-74
2022/11/07 10:45:02;;;;;;;2.13;0.85;;;13.90;87.50;;;;;;4843362;29;20102;-77
2022/11/07 10:52:04;;;;;;;3.03;0.90;;;13.90;87.50;;;;;;4857915;29;20057;-76
2022/11/07 10:55:07;;;;;;;2.50;0.90;;;14.00;87.50;;;;;;4837696;29;20046;-76
2022/11/07 11:05:01;;;;;;;2.40;0.73;;;14.10;87.50;;;;;;4775188;29;20206;-75
2022/11/07 11:07:37;;;;;;;1.13;0.70;;;14.10;87.40;;;;;;4796243;29;20550;-75
2022/11/07 11:10:18;;;;;;;0.73;0.60;;;14.10;87.40;;;;;;4807789;29;20038;-75
2022/11/07 11:12:46;;;;;;;1.67;0.52;;;14.10;87.30;;;;;;4822561;29;20171;-75
2022/11/07 11:15:23;;;;;;;1.45;0.65;;;14.10;87.20;;;;;;4832825;29;20126;-76
2022/11/07 11:18:26;;;;;;;1.50;0.65;;;14.20;87.30;;;;;;4834016;29;20042;-76
2022/11/07 11:24:36;;;;;;;1.23;0.60;;;14.30;87.20;;;;;;4708241;30;20108;-77
2022/11/07 11:27:11;;;;;;;2.17;0.80;;;14.20;87.00;;;;;;4716599;30;20061;-76
2022/11/07 11:29:47;;;;;;;2.65;0.60;;;14.30;87.10;;;;;;4766995;30;20044;-76
2022/11/07 11:32:23;;;;;;;1.55;0.70;;;14.30;87.10;;;;;;4768721;30;20059;-77
2022/11/07 11:35:04;;;;;;;1.30;0.52;;;14.30;87.70;;;;;;4766714;30;20043;-77
2022/11/07 11:37:35;;;;;;;1.02;0.60;;;14.30;87.10;;;;;;4753058;30;20440;-77
2022/11/07 11:40:20;;;;;;;1.38;0.65;;;14.20;87.10;;;;;;4773751;29;20519;-76
2022/11/07 11:43:15;;;;;;;1.25;0.60;;;14.20;87.20;;;;;;4835605;29;20037;-76
2022/11/07 12:10:09;;;;;;;3.15;0.88;;;14.70;86.50;;;;;;4969605;28;20141;-77
2022/11/07 12:13:39;;;;;;;2.05;0.85;;;14.60;86.50;;;;;;4955388;28;20042;-77
2022/11/07 12:20:37;;;;;;;1.48;0.68;;;14.70;86.40;;;;;;4819953;29;20148;-77
2022/11/07 12:35:04;;;;;;;2.38;0.80;;;14.80;86.20;;;;;;4799159;29;20528;-77
2022/11/07 12:41:40;;;;;;;4.00;0.90;;;14.80;86.20;;;;;;4733508;30;20100;-73
2022/11/07 12:44:40;;;;;;;1.83;0.75;;;14.80;86.10;;;;;;4719081;30;20056;-73
2022/11/07 12:57:51;;;;;;;4.18;0.77;;;14.90;86.20;;;;;;4826957;29;20098;-75
2022/11/07 13:00:25;;;;;;;1.92;0.60;;;14.90;86.00;;;;;;4822225;29;20046;-74
2022/11/07 13:03:34;;;;;;;2.42;0.73;;;14.90;85.90;;;;;;4766540;29;20043;-77
2022/11/07 13:13:07;;;;;;;2.88;0.70;;;15.10;85.60;;;;;;4803050;29;20119;-75
2022/11/07 13:22:20;;;;;;;1.52;0.90;;;15.10;85.50;;;;;;4741993;30;20059;-75
2022/11/07 13:32:29;;;;;;;2.08;0.95;;;15.10;85.40;;;;;;4685633;30;20479;-76
2022/11/07 13:38:14;;;;;;;2.95;0.80;;;15.10;85.30;;;;;;4709112;30;20147;-76
2022/11/07 13:40:51;;;;;;;1.70;0.70;;;15.10;85.30;;;;;;4702023;30;20045;-76
2022/11/07 13:43:22;;;;;;;2.83;1.00;;;15.00;85.30;;;;;;4700486;30;20046;-76
2022/11/07 13:45:54;;;;;;;2.25;0.63;;;15.00;85.50;;;;;;4713074;30;20100;-75
2022/11/07 13:49:03;;;;;;;2.15;0.80;;;15.00;85.50;;;;;;4696141;30;20030;-75
2022/11/07 13:51:42;;;;;;;2.65;0.70;;;14.90;85.50;;;;;;4644738;30;20541;-76
2022/11/07 14:22:36;;;;;;;0.43;0.40;;;14.90;85.50;;;;;;4731052;30;20053;-76
2022/11/07 14:25:02;;;;;;;2.45;0.70;;;14.90;85.40;;;;;;4704592;30;20058;-76
2022/11/07 14:27:28;;;;;;;1.25;0.60;;;14.90;85.40;;;;;;4703379;30;20173;-75
2022/11/07 14:29:56;;;;;;;2.55;0.85;;;14.90;85.40;;;;;;4757674;30;20098;-74
2022/11/07 14:32:23;;;;;;;4.25;1.00;;;14.90;85.40;;;;;;4776237;30;20071;-75
2022/11/07 14:34:50;;;;;;;1.65;0.70;;;14.90;85.40;;;;;;4756701;30;20637;-76
2022/11/07 14:37:18;;;;;;;1.83;0.70;;;15.00;85.30;;;;;;4773356;30;20039;-75
2022/11/07 14:39:45;;;;;;;2.22;0.82;;;15.00;85.20;;;;;;4768964;30;20036;-75
2022/11/07 14:42:17;;;;;;;2.05;0.70;;;15.00;85.10;;;;;;4768920;30;20482;-74
2022/11/07 14:44:46;;;;;;;1.35;0.70;;;15.00;85.00;;;;;;4769030;30;20040;-76
2022/11/07 14:47:17;;;;;;;0.90;0.60;;;15.00;85.00;;;;;;4842850;29;20041;-75
2022/11/07 14:49:46;;;;;;;2.17;0.70;;;15.00;85.00;;;;;;4874897;29;20055;-75
2022/11/07 14:52:21;;;;;;;1.58;0.70;;;15.00;85.00;;;;;;4899808;29;20032;-74
2022/11/07 14:54:49;;;;;;;0.65;0.40;;;15.00;85.00;;;;;;4905656;28;20063;-74
2022/11/07 14:57:16;;;;;;;1.80;0.60;;;15.00;85.10;;;;;;4957896;28;20039;-74
2022/11/07 14:59:42;;;;;;;2.63;1.00;;;15.00;85.80;;;;;;4971902;28;20064;-74
2022/11/07 15:02:30;;;;;;;2.05;0.85;;;15.00;85.20;;;;;;4957395;28;20482;-74
2022/11/07 15:04:56;;;;;;;1.13;0.60;;;14.90;85.20;;;;;;4959581;28;20111;-73
2022/11/07 15:07:27;;;;;;;1.63;0.75;;;14.90;85.90;;;;;;4957472;28;20027;-73
2022/11/07 15:09:55;;;;;;;0.85;0.50;;;14.90;85.40;;;;;;4956904;28;20486;-74
2022/11/07 15:12:24;;;;;;;1.88;0.65;;;14.90;85.40;;;;;;4957435;28;20031;-74
2022/11/07 15:15:16;;;;;;;1.70;0.70;;;14.90;85.40;;;;;;4974705;28;20089;-74
2022/11/07 15:17:48;;;;;;;1.63;0.60;;;14.90;85.50;;;;;;4974655;28;20521;-74
2022/11/07 15:20:35;;;;;;;1.08;0.50;;;14.80;85.40;;;;;;4974619;28;20062;-74
2022/11/07 15:23:04;;;;;;;1.27;0.60;;;14.80;85.50;;;;;;4974776;28;20042;-74
2022/11/07 15:25:37;;;;;;;1.65;0.75;;;14.80;85.50;;;;;;4974545;28;20110;-74
2022/11/07 15:28:23;;;;;;;1.33;0.57;;;14.80;85.50;;;;;;4974588;28;20514;-74
2022/11/07 15:30:51;;;;;;;1.73;0.60;;;14.80;85.60;;;;;;4957498;28;20038;-74
2022/11/07 15:33:17;;;;;;;1.15;0.57;;;14.70;85.60;;;;;;4974656;28;20435;-74
2022/11/07 15:35:46;;;;;;;2.00;0.75;;;14.80;85.70;;;;;;4974289;28;20054;-74
2022/11/07 15:38:18;;;;;;;1.08;0.60;;;14.70;85.60;;;;;;4956898;28;20554;-74
2022/11/07 15:40:44;;;;;;;2.08;0.60;;;14.80;86.30;;;;;;4974769;28;20145;-74
2022/11/07 15:43:11;;;;;;;3.72;0.70;;;14.80;85.60;;;;;;4974347;28;20034;-74
2022/11/07 15:45:37;;;;;;;1.90;0.70;;;14.80;85.60;;;;;;4938737;28;20059;-74
2022/11/07 15:48:05;;;;;;;0.30;0.30;;;14.80;85.60;;;;;;4974383;28;20031;-74
2022/11/07 15:50:31;;;;;;;2.45;0.75;;;14.80;85.60;;;;;;4957209;28;20046;-74
2022/11/07 15:52:57;;;;;;;3.78;0.70;;;14.80;85.60;;;;;;4956771;28;20503;-73
2022/11/07 15:55:23;;;;;;;2.38;0.75;;;14.80;85.50;;;;;;4974252;28;20049;-73
2022/11/07 15:57:52;;;;;;;1.60;0.90;;;14.70;85.50;;;;;;4974062;28;20546;-74
2022/11/07 16:00:22;;;;;;;0.95;0.60;;;14.70;85.50;;;;;;4974223;28;20086;-73
2022/11/07 16:02:48;;;;;;;2.15;0.68;;;14.80;85.50;;;;;;4957024;28;20114;-74
2022/11/07 16:05:15;;;;;;;1.35;0.70;;;14.70;85.50;;;;;;4974318;28;20462;-73
2022/11/07 16:07:42;;;;;;;1.65;0.60;;;14.70;85.50;;;;;;4974512;28;20042;-74
2022/11/07 16:10:20;;;;;;;1.60;0.60;;;14.70;85.60;;;;;;4974275;28;20047;-73
2022/11/07 16:12:46;;;;;;;3.25;0.73;;;14.70;85.70;;;;;;4941138;28;20062;-74
2022/11/07 16:15:13;;;;;;;0.85;0.50;;;14.60;85.80;;;;;;4972568;28;20492;-74
2022/11/07 16:17:40;;;;;;;1.63;0.65;;;14.70;85.90;;;;;;4973914;28;20105;-73
2022/11/07 16:20:11;;;;;;;0.60;0.50;;;14.60;85.90;;;;;;4974042;28;20147;-73
2022/11/07 16:22:37;;;;;;;0.90;0.70;;;14.60;85.90;;;;;;4956957;28;20039;-74
2022/11/07 16:25:03;;;;;;;0.95;0.40;;;14.60;86.00;;;;;;4973320;28;20031;-73
2022/11/07 16:27:29;;;;;;;1.38;0.60;;;14.60;86.00;;;;;;4973668;28;20031;-73
2022/11/07 16:29:54;;;;;;;0.45;0.32;;;14.60;86.10;;;;;;4973911;28;20524;-74
2022/11/07 16:32:20;;;;;;;1.38;0.50;;;14.60;86.00;;;;;;4973856;28;20428;-73
2022/11/07 16:34:46;;;;;;;1.67;0.50;;;14.60;86.10;;;;;;4973683;28;20494;-73
2022/11/07 16:37:12;;;;;;;2.75;0.70;;;14.60;86.20;;;;;;4973969;28;20126;-74
2022/11/07 16:39:38;;;;;;;0.88;0.50;;;14.50;86.10;;;;;;4974068;28;20141;-73
2022/11/07 16:42:03;;;;;;;1.10;0.57;;;14.50;86.20;;;;;;4974006;28;20035;-73
2022/11/07 16:44:29;;;;;;;3.17;0.98;;;14.50;86.20;;;;;;4973393;28;20027;-73
2022/11/07 16:46:55;;;;;;;2.10;0.70;;;14.50;86.20;;;;;;4973621;28;20030;-74
2022/11/07 16:49:29;;;;;;;1.15;0.50;;;14.50;86.30;;;;;;4955996;28;20038;-73
2022/11/07 16:51:55;;;;;;;1.90;0.80;;;14.40;86.30;;;;;;4973994;28;20034;-74
2022/11/07 16:54:21;;;;;;;1.75;0.75;;;14.40;86.30;;;;;;4973761;28;20039;-73
2022/11/07 16:56:50;;;;;;;1.38;0.70;;;14.50;86.30;;;;;;4972996;28;20045;-73
2022/11/07 16:59:20;;;;;;;1.83;0.85;;;14.50;86.30;;;;;;4972965;28;20038;-73